Terminal Aerodrome Forecast
Issued by NWS

Home | Current Version | Previous Version | Text Only | Print | Product List | Glossary On
Versions: 1 2 3 4 5 6 7 8 9 10 11 12 13
488
FTUS43 KMQT 241722
TAFSAW
TAF
KSAW 241722Z 2418/2518 22014G23KT P6SM VCSH BKN150
     FM242000 23009KT P6SM -SHRA BKN070
     FM242200 24008KT 5SM -SHRA OVC035
     FM250100 28008KT P6SM VCSH BKN015
     FM250300 28009KT P6SM BKN015
     FM250700 29010KT P6SM BKN020
     FM251400 32010KT P6SM BKN025=

USA.gov is the U.S. government's official web portal to all federal, state and local government web resources and services.